Orbital elements of FENGYUN 1C DEB
| Launched | 9 May 1999 |
| Flight ended | – |
| Launch site | Taiyuan Space Center, PRC |
| Owner | People's Republic of China |
| NORAD ID | 30344 |
| Date fetched |
Epoch osculation |
Inc. [°] |
Ecc. | RA asc node [hr] |
Arg Peri. [°] |
Mean anom [°] |
Mean motion [rev/day] |
Abs. mag |
| Date fetched |
Epoch osculation |
Inc. [°] |
Ecc. | RA asc node [hr] |
Arg Peri. [°] |
Mean anom [°] |
Mean motion [rev/day] |
Abs. mag |
| 2026 May 05 17:57 | 2026 May 05 05:12:13 | 98.8134 | 0.00069 | 14.6443 | 60.4144 | 329.5574 | 14.54817 | – |
| 2026 May 04 17:57 | 2026 Apr 29 19:12:47 | 98.8119 | 0.00077 | 14.2638 | 77.2346 | 329.5574 | 14.54817 | – |
| 2026 May 03 17:57 | 2026 Apr 29 19:12:47 | 98.8119 | 0.00077 | 14.2638 | 77.2346 | 329.5574 | 14.54817 | – |
| 2026 May 02 17:57 | 2026 Apr 29 19:12:47 | 98.8119 | 0.00077 | 14.2638 | 77.2346 | 329.5574 | 14.54817 | – |
| 2026 May 01 17:56 | 2026 Apr 29 19:12:47 | 98.8119 | 0.00077 | 14.2638 | 77.2346 | 329.5574 | 14.54817 | – |
| 2026 Apr 30 17:56 | 2026 Apr 29 19:12:47 | 98.8119 | 0.00077 | 14.2638 | 77.2346 | 329.5574 | 14.54817 | – |
| 2026 Apr 29 17:57 | 2026 Apr 24 05:04:50 | 98.8112 | 0.00083 | 13.8713 | 92.5857 | 329.5574 | 14.54817 | – |
| 2026 Apr 28 17:56 | 2026 Apr 24 05:04:50 | 98.8112 | 0.00083 | 13.8713 | 92.5857 | 329.5574 | 14.54817 | – |
| 2026 Apr 27 17:58 | 2026 Apr 24 05:04:50 | 98.8112 | 0.00083 | 13.8713 | 92.5857 | 329.5574 | 14.54817 | – |
| 2026 Apr 26 17:58 | 2026 Apr 24 05:04:50 | 98.8112 | 0.00083 | 13.8713 | 92.5857 | 329.5574 | 14.54817 | – |
| 2026 Apr 25 17:58 | 2026 Apr 24 05:04:50 | 98.8112 | 0.00083 | 13.8713 | 92.5857 | 329.5574 | 14.54817 | – |
| 2026 Apr 24 17:59 | 2026 Apr 24 05:04:50 | 98.8112 | 0.00083 | 13.8713 | 92.5857 | 329.5574 | 14.54817 | – |
| 2026 Apr 23 17:57 | 2026 Apr 19 04:34:02 | 98.8118 | 0.00089 | 13.5187 | 104.9054 | 329.5574 | 14.54817 | – |
| 2026 Apr 22 17:57 | 2026 Apr 19 04:34:02 | 98.8118 | 0.00089 | 13.5187 | 104.9054 | 329.5574 | 14.54817 | – |
| 2026 Apr 21 17:57 | 2026 Apr 19 04:34:02 | 98.8118 | 0.00089 | 13.5187 | 104.9054 | 329.5574 | 14.54817 | – |
| 2026 Apr 20 17:57 | 2026 Apr 19 04:34:02 | 98.8118 | 0.00089 | 13.5187 | 104.9054 | 329.5574 | 14.54817 | – |
| 2026 Apr 19 17:58 | 2026 Apr 19 04:34:02 | 98.8118 | 0.00089 | 13.5187 | 104.9054 | 329.5574 | 14.54817 | – |
| 2026 Apr 18 17:56 | 2026 Apr 13 04:55:30 | 98.8108 | 0.00093 | 13.0985 | 119.4789 | 329.5574 | 14.54817 | – |
| 2026 Apr 16 17:57 | 2026 Apr 13 04:55:30 | 98.8108 | 0.00093 | 13.0985 | 119.4789 | 329.5574 | 14.54817 | – |
| 2026 Apr 14 17:57 | 2026 Apr 13 04:55:30 | 98.8108 | 0.00093 | 13.0985 | 119.4789 | 329.5574 | 14.54817 | – |
| 2026 Apr 13 17:57 | 2026 Apr 13 04:55:30 | 98.8108 | 0.00093 | 13.0985 | 119.4789 | 329.5574 | 14.54817 | – |
| 2026 Apr 12 17:57 | 2026 Apr 08 06:00:46 | 98.8109 | 0.00097 | 12.7507 | 130.9008 | 329.5574 | 14.54817 | – |
| 2026 Apr 11 17:57 | 2026 Apr 08 06:00:46 | 98.8109 | 0.00097 | 12.7507 | 130.9008 | 329.5574 | 14.54817 | – |
| 2026 Apr 10 17:58 | 2026 Apr 08 06:00:46 | 98.8109 | 0.00097 | 12.7507 | 130.9008 | 329.5574 | 14.54817 | – |
| 2026 Apr 09 18:01 | 2026 Apr 08 06:00:46 | 98.8109 | 0.00097 | 12.7507 | 130.9008 | 329.5574 | 14.54817 | – |
| 2026 Apr 08 17:57 | 2026 Apr 08 06:00:46 | 98.8109 | 0.00097 | 12.7507 | 130.9008 | 329.5574 | 14.54817 | – |